Time;durP1;ratioP1;P1;durP2;ratioP2;P2;SDS_P1;SDS_P2;PMS_P1;PMS_P2;Temp;Humidity;BMP_temperature;BMP_pressure;BME280_temperature;BME280_humidity;BME280_pressure;Samples;Min_cycle;Max_cycle;Signal;HPM_P1;HPM_P2
2021/10/20 00:02:12;;;;;;;1999.90;999.90;;;;;;;17.06;75.73;100938.94;15497232;28;20149;-61
2021/10/20 00:09:46;;;;;;;1999.90;999.90;;;;;;;16.93;76.28;100933.47;15530139;28;20491;-62
2021/10/20 00:17:19;;;;;;;1999.90;999.90;;;;;;;16.89;76.23;100928.97;15510225;28;20041;-61
2021/10/20 00:24:53;;;;;;;1999.90;999.90;;;;;;;16.88;76.37;100922.50;15519914;28;20049;-62
2021/10/20 00:32:26;;;;;;;1999.90;999.90;;;;;;;16.90;76.17;100914.50;15527684;28;20057;-61
2021/10/20 00:39:59;;;;;;;1999.90;999.90;;;;;;;16.93;75.97;100893.19;15492673;28;20045;-61
2021/10/20 00:47:34;;;;;;;1999.90;999.90;;;;;;;16.71;76.59;100887.13;15527139;28;20058;-60
2021/10/20 00:55:10;;;;;;;1999.90;999.90;;;;;;;16.69;76.87;100866.16;15491441;28;20483;-62
2021/10/20 01:02:42;;;;;;;1999.90;999.90;;;;;;;16.52;77.50;100866.53;15510360;28;20042;-63
2021/10/20 01:10:16;;;;;;;1999.90;999.90;;;;;;;16.56;77.25;100842.06;15494041;28;20042;-63
2021/10/20 01:17:50;;;;;;;1999.90;999.90;;;;;;;16.59;76.80;100844.97;15526090;28;20046;-63
2021/10/20 01:25:23;;;;;;;;;;;;;;;16.52;77.22;100829.94;15531707;28;20061;-63
2021/10/20 01:32:56;;;;;;;1999.90;999.90;;;;;;;16.30;77.67;100826.66;15512046;28;20301;-63
2021/10/20 01:40:29;;;;;;;1999.90;999.90;;;;;;;16.48;76.98;100807.31;15538302;28;20455;-64
2021/10/20 01:48:02;;;;;;;1999.90;999.90;;;;;;;16.25;77.51;100803.59;15507995;28;20068;-62
2021/10/20 01:55:36;;;;;;;1999.90;999.90;;;;;;;16.40;76.74;100795.09;15506094;28;20108;-62
2021/10/20 02:03:09;;;;;;;1999.90;999.90;;;;;;;15.98;78.33;100780.91;15509231;28;20097;-61
2021/10/20 02:10:42;;;;;;;1999.90;999.90;;;;;;;16.20;77.28;100759.69;15490958;28;20590;-63
2021/10/20 02:18:15;;;;;;;1999.90;999.90;;;;;;;16.10;77.31;100752.63;15508450;28;20053;-63
2021/10/20 02:25:49;;;;;;;1999.90;999.90;;;;;;;16.19;76.92;100751.59;15511505;28;20047;-63
2021/10/20 02:33:22;;;;;;;1999.90;999.90;;;;;;;15.93;77.70;100736.16;15529708;28;20041;-63
2021/10/20 02:40:55;;;;;;;1999.90;999.90;;;;;;;15.85;77.95;100728.78;15472539;28;20058;-63
2021/10/20 02:48:28;;;;;;;1999.90;999.90;;;;;;;15.90;77.51;100711.59;15533144;28;20332;-63
2021/10/20 02:56:01;;;;;;;1999.90;999.90;;;;;;;15.89;77.46;100709.97;15490212;28;20117;-63
2021/10/20 03:03:34;;;;;;;1999.90;999.90;;;;;;;15.76;77.75;100711.28;15508095;28;20112;-63
2021/10/20 03:11:09;;;;;;;;;;;;;;;15.84;77.06;100696.19;15536922;28;20085;-63
2021/10/20 03:18:41;;;;;;;1999.90;999.90;;;;;;;15.79;76.91;100702.91;15527443;28;19921;-64
2021/10/20 03:26:15;;;;;;;1999.90;999.90;;;;;;;15.69;77.04;100692.25;15514770;28;20180;-63
2021/10/20 03:33:48;;;;;;;1999.90;999.90;;;;;;;15.65;77.31;100676.47;15524929;28;20141;-63
2021/10/20 03:41:21;;;;;;;1999.90;999.90;;;;;;;15.84;76.59;100682.94;15497083;28;20217;-63
2021/10/20 03:48:54;;;;;;;1999.90;999.90;;;;;;;15.79;76.63;100673.97;15541553;23;20450;-61
2021/10/20 03:56:29;;;;;;;;;;;;;;;15.77;76.32;100674.34;15539075;28;20168;-61
2021/10/20 04:04:01;;;;;;;1999.90;999.90;;;;;;;15.75;76.20;100664.66;15499227;28;20394;-62
2021/10/20 04:11:35;;;;;;;1999.90;999.90;;;;;;;15.71;76.32;100658.94;15505379;28;20125;-60
2021/10/20 04:19:07;;;;;;;1999.90;999.90;;;;;;;15.65;76.38;100649.16;15530582;28;20521;-59
2021/10/20 04:26:41;;;;;;;1999.90;999.90;;;;;;;15.78;75.65;100647.03;15539200;28;20467;-62
2021/10/20 04:34:14;;;;;;;1999.90;999.90;;;;;;;15.71;75.48;100641.25;15522467;28;20046;-59
2021/10/20 04:41:48;;;;;;;1999.90;999.90;;;;;;;15.68;75.35;100613.84;15537349;28;20046;-60
2021/10/20 04:49:21;;;;;;;1999.90;999.90;;;;;;;15.79;74.49;100620.50;15509429;28;20045;-60
2021/10/20 04:56:54;;;;;;;1999.90;999.90;;;;;;;15.61;75.30;100611.69;15513857;28;20133;-60
2021/10/20 05:04:27;;;;;;;1999.90;999.90;;;;;;;15.71;74.48;100613.09;15528867;28;20046;-60
2021/10/20 05:12:01;;;;;;;1999.90;999.90;;;;;;;15.61;74.80;100611.69;15533878;28;20046;-60
2021/10/20 05:19:33;;;;;;;1999.90;999.90;;;;;;;15.66;73.85;100588.91;15536093;28;20100;-60
2021/10/20 05:27:07;;;;;;;1999.90;999.90;;;;;;;15.55;74.34;100579.41;15515052;28;20081;-60
2021/10/20 05:34:40;;;;;;;1999.90;999.90;;;;;;;15.59;73.84;100575.47;15491740;28;20037;-60
2021/10/20 05:42:14;;;;;;;1999.90;999.90;;;;;;;15.58;73.69;100565.41;15502112;28;20073;-60
2021/10/20 05:49:47;;;;;;;1999.90;999.90;;;;;;;15.32;74.58;100556.84;15502324;28;20046;-61
2021/10/20 05:57:22;;;;;;;1999.90;999.90;;;;;;;15.28;74.90;100541.88;15494132;28;20050;-60
2021/10/20 06:04:54;;;;;;;1999.90;999.90;;;;;;;15.17;74.48;100541.66;15494921;28;20154;-60
2021/10/20 06:12:28;;;;;;;1999.90;999.90;;;;;;;15.10;75.17;100533.06;15477256;28;20051;-60
2021/10/20 06:20:00;;;;;;;1999.90;999.90;;;;;;;15.44;73.57;100530.59;15495597;28;20074;-60
2021/10/20 06:27:34;;;;;;;1999.90;999.90;;;;;;;15.54;73.09;100519.56;15496603;28;20145;-59
2021/10/20 06:35:10;;;;;;;1999.90;999.90;;;;;;;15.30;73.42;100523.47;15487701;28;20563;-60
2021/10/20 06:42:45;;;;;;;1999.90;999.90;;;;;;;15.63;72.32;100505.28;15438177;28;20097;-60
2021/10/20 06:50:19;;;;;;;1999.90;999.90;;;;;;;15.92;70.73;100515.06;15442428;28;20063;-60
2021/10/20 06:57:53;;;;;;;1999.90;999.90;;;;;;;16.16;70.08;100511.91;15443052;28;20082;-61
2021/10/20 07:05:25;;;;;;;1999.90;999.90;;;;;;;16.06;69.30;100518.16;15442692;28;20118;-61
2021/10/20 07:12:59;;;;;;;1999.90;999.90;;;;;;;16.32;68.71;100505.28;15443263;28;20431;-61
2021/10/20 07:20:31;;;;;;;1999.90;999.90;;;;;;;16.47;67.81;100501.53;15443779;28;20047;-61
2021/10/20 07:28:06;;;;;;;1999.90;999.90;;;;;;;16.93;65.62;100501.44;15441207;28;20051;-59
2021/10/20 07:35:38;;;;;;;1999.90;999.90;;;;;;;17.91;63.06;100507.88;15450864;28;20043;-58
2021/10/20 07:43:12;;;;;;;1999.90;999.90;;;;;;;18.13;61.42;100489.91;15501384;28;20046;-59
2021/10/20 07:50:44;;;;;;;1999.90;999.90;;;;;;;18.08;61.10;100481.81;15500742;28;20047;-59
2021/10/20 07:58:18;;;;;;;1999.90;999.90;;;;;;;18.80;58.80;100480.38;15499235;28;20042;-62
2021/10/20 08:05:51;;;;;;;1999.90;999.90;;;;;;;18.39;59.29;100463.53;15500256;28;20423;-59
2021/10/20 08:13:24;;;;;;;1999.90;999.90;;;;;;;18.88;57.78;100453.78;15531154;28;20061;-60
2021/10/20 08:20:57;;;;;;;1999.90;999.90;;;;;;;18.40;58.96;100465.94;15497661;28;20049;-61
2021/10/20 08:28:31;;;;;;;1999.90;999.90;;;;;;;19.74;55.70;100447.22;15498292;28;20054;-62
2021/10/20 08:36:03;;;;;;;1999.90;999.90;;;;;;;18.85;56.85;100432.75;15529262;28;20404;-61
2021/10/20 08:43:39;;;;;;;1999.90;999.90;;;;;;;19.22;56.40;100426.03;15497364;28;20461;-60
2021/10/20 08:51:13;;;;;;;1999.90;999.90;;;;;;;18.96;56.58;100405.34;15497213;28;20120;-61
2021/10/20 08:58:46;;;;;;;1999.90;999.90;;;;;;;18.54;57.56;100397.41;15495377;28;20085;-62
2021/10/20 09:06:19;;;;;;;1999.90;999.90;;;;;;;18.45;57.85;100409.09;15479143;28;20054;-61
2021/10/20 09:13:58;;;;;;;1999.90;999.90;;;;;;;18.53;58.48;100424.06;15496337;28;20096;-61
2021/10/20 09:21:31;;;;;;;1999.90;999.90;;;;;;;17.58;65.57;100397.47;15496696;28;20096;-62
2021/10/20 09:29:19;;;;;;;1999.90;999.90;;;;;;;17.25;66.51;100372.97;15496632;28;20114;-62
2021/10/20 09:36:54;;;;;;;1999.90;999.90;;;;;;;16.99;66.70;100328.00;15494513;28;20113;-59
2021/10/20 09:44:29;;;;;;;1999.90;999.90;;;;;;;17.16;67.39;100351.91;15494777;28;20053;-60
2021/10/20 09:52:05;;;;;;;1999.90;999.90;;;;;;;17.15;67.82;100351.09;15493560;28;20053;-62
2021/10/20 09:59:40;;;;;;;1999.90;999.90;;;;;;;17.07;69.58;100388.06;15494422;28;20054;-62
2021/10/20 10:07:13;;;;;;;1999.90;999.90;;;;;;;15.98;73.46;100375.69;15493747;28;20058;-61
2021/10/20 10:14:50;;;;;;;1999.90;999.90;;;;;;;15.54;76.09;100310.66;15494573;28;20380;-62
2021/10/20 10:22:25;;;;;;;1999.90;999.90;;;;;;;15.54;75.58;100268.47;15505353;28;20471;-63
2021/10/20 10:30:04;;;;;;;1999.90;999.90;;;;;;;15.96;74.82;100240.19;15504295;28;20039;-62
2021/10/20 10:37:38;;;;;;;1999.90;999.90;;;;;;;16.21;75.55;100263.03;15536414;28;20046;-63
2021/10/20 10:45:14;;;;;;;1999.90;999.90;;;;;;;16.64;72.05;100252.28;15504470;28;20046;-61
2021/10/20 10:52:46;;;;;;;1999.90;999.90;;;;;;;16.67;71.41;100206.44;15502888;28;20133;-62
2021/10/20 11:00:32;;;;;;;1999.90;999.90;;;;;;;17.11;69.95;100212.16;15503287;28;20053;-63
2021/10/20 11:08:09;;;;;;;1999.90;999.90;;;;;;;16.79;70.15;100104.78;15502777;28;20531;-63
2021/10/20 11:15:44;;;;;;;1999.90;999.90;;;;;;;16.98;70.32;100117.78;15502675;28;20086;-62
2021/10/20 11:23:18;;;;;;;1999.90;999.90;;;;;;;17.08;70.43;100119.88;15502137;28;20042;-62
2021/10/20 11:30:52;;;;;;;1999.90;999.90;;;;;;;17.26;69.80;100105.94;15500434;28;20439;-63
2021/10/20 11:38:26;;;;;;;1999.90;999.90;;;;;;;17.47;68.76;100079.84;15500693;28;20325;-62
2021/10/20 11:46:00;;;;;;;1999.90;999.90;;;;;;;17.75;66.98;100077.19;15500642;28;20042;-63
2021/10/20 11:53:33;;;;;;;1999.90;999.90;;;;;;;18.04;65.13;100078.13;15498964;28;20062;-61
2021/10/20 12:01:07;;;;;;;1999.90;999.90;;;;;;;18.56;64.31;100072.16;15500565;28;20123;-62
2021/10/20 12:08:45;;;;;;;1999.90;999.90;;;;;;;18.81;63.36;100070.16;15499735;28;20093;-62
2021/10/20 12:16:20;;;;;;;1999.90;999.90;;;;;;;18.85;62.39;100065.28;15499110;28;20467;-60
2021/10/20 12:23:52;;;;;;;1999.90;999.90;;;;;;;19.19;60.16;100039.41;15498156;28;20088;-63
2021/10/20 12:31:27;;;;;;;1999.90;999.90;;;;;;;20.63;57.49;100041.06;15523472;28;20035;-62
2021/10/20 12:39:04;;;;;;;1999.90;999.90;;;;;;;20.26;57.43;100030.44;15520078;28;20046;-62
2021/10/20 12:46:42;;;;;;;1999.90;999.90;;;;;;;20.30;57.32;100009.34;15515736;28;20137;-62
2021/10/20 12:54:15;;;;;;;1999.90;999.90;;;;;;;20.27;56.79;99998.84;15523283;28;20049;-63
2021/10/20 13:01:49;;;;;;;1999.90;999.90;;;;;;;20.41;57.37;99998.72;15498716;28;20042;-62
2021/10/20 13:09:23;;;;;;;1999.90;999.90;;;;;;;20.31;57.40;99982.63;15520764;28;20125;-63
2021/10/20 13:17:00;;;;;;;1999.90;999.90;;;;;;;20.42;57.03;99977.69;15524524;28;20042;-63
2021/10/20 13:24:34;;;;;;;1999.90;999.90;;;;;;;20.44;56.27;99968.81;15480100;28;20054;-63
2021/10/20 13:32:13;;;;;;;1999.90;999.90;;;;;;;20.54;55.43;99959.41;15527399;28;20052;-61
2021/10/20 13:39:48;;;;;;;1999.90;999.90;;;;;;;21.09;54.94;99952.75;15489373;28;20050;-62
2021/10/20 13:47:22;;;;;;;1999.90;999.90;;;;;;;21.45;54.29;99944.59;15488707;28;20053;-62
2021/10/20 13:54:55;;;;;;;1999.90;999.90;;;;;;;21.46;53.77;99928.38;15491700;28;20502;-62
2021/10/20 14:02:31;;;;;;;1999.90;999.90;;;;;;;21.24;54.81;99934.31;15493818;28;20046;-63
2021/10/20 14:10:05;;;;;;;1999.90;999.90;;;;;;;21.24;54.35;99936.34;15493983;28;20050;-62
2021/10/20 14:17:39;;;;;;;1999.90;999.90;;;;;;;21.25;53.77;99918.88;15493473;28;20046;-63
2021/10/20 14:25:12;;;;;;;1999.90;999.90;;;;;;;21.17;53.38;99916.59;15491265;28;20495;-63
2021/10/20 14:32:45;;;;;;;1999.90;999.90;;;;;;;21.10;53.31;99913.81;15491419;28;20053;-61
2021/10/20 14:40:18;;;;;;;1999.90;999.90;;;;;;;21.03;53.32;99926.84;15493309;28;20042;-62
2021/10/20 14:47:52;;;;;;;1999.90;999.90;;;;;;;21.03;53.69;99909.03;15492530;28;20388;-62
2021/10/20 14:55:25;;;;;;;1999.90;999.90;;;;;;;20.93;53.67;99921.31;15491758;28;20042;-62
2021/10/20 15:03:01;;;;;;;1999.90;999.90;;;;;;;20.97;54.15;99927.75;15495672;28;20081;-62
2021/10/20 15:10:35;;;;;;;1999.90;999.90;;;;;;;20.89;54.17;99918.53;15503438;28;20047;-63
2021/10/20 15:18:11;;;;;;;1999.90;999.90;;;;;;;20.72;54.41;99928.81;15503322;28;20137;-63
2021/10/20 15:25:43;;;;;;;1999.90;999.90;;;;;;;20.83;54.31;99922.22;15502073;28;20524;-62
2021/10/20 15:33:19;;;;;;;1999.90;999.90;;;;;;;20.59;54.74;99924.13;15502746;28;20061;-61
2021/10/20 15:40:55;;;;;;;1999.90;999.90;;;;;;;20.43;55.45;99916.19;15532454;28;20051;-62
2021/10/20 15:48:29;;;;;;;1999.90;999.90;;;;;;;20.48;55.71;99906.41;15580841;22;20048;-62
2021/10/20 15:56:02;;;;;;;1999.90;999.90;;;;;;;20.33;56.54;99905.72;15678504;28;20045;-61
2021/10/20 16:03:37;;;;;;;;;;;;;;;20.56;56.16;99911.59;15678111;28;20577;-62
2021/10/20 16:11:10;;;;;;;1999.90;999.90;;;;;;;20.22;57.19;99908.66;15678204;28;19960;-62
2021/10/20 16:18:44;;;;;;;1999.90;999.90;;;;;;;20.10;58.31;99924.13;15676410;28;20045;-62
2021/10/20 16:26:16;;;;;;;1999.90;999.90;;;;;;;20.21;58.30;99901.38;15677599;28;20090;-62
2021/10/20 16:33:50;;;;;;;1999.90;999.90;;;;;;;20.13;58.94;99894.97;15675807;28;20124;-61
2021/10/20 16:41:23;;;;;;;1999.90;999.90;;;;;;;20.01;58.95;99904.00;15675419;28;20049;-62
2021/10/20 16:48:57;;;;;;;1999.90;999.90;;;;;;;20.16;58.76;99911.13;15676766;28;20107;-62
2021/10/20 16:56:29;;;;;;;1999.90;999.90;;;;;;;19.78;59.96;99900.91;15676055;28;20140;-62
2021/10/20 17:04:03;;;;;;;1999.90;999.90;;;;;;;19.79;59.94;99894.03;15637334;28;20046;-62
2021/10/20 17:11:36;;;;;;;1999.90;999.90;;;;;;;19.83;60.15;99883.50;15654493;28;20087;-61
2021/10/20 17:19:09;;;;;;;1999.90;999.90;;;;;;;19.68;60.77;99882.78;15640685;28;20475;-60
2021/10/20 17:26:42;;;;;;;1999.90;999.90;;;;;;;19.69;60.74;99877.91;15631585;28;20049;-62
2021/10/20 17:34:16;;;;;;;1999.90;999.90;;;;;;;19.69;61.12;99872.25;15626985;28;20037;-61
2021/10/20 17:41:48;;;;;;;1999.90;999.90;;;;;;;19.87;60.98;99861.63;15643197;28;20067;-62
2021/10/20 17:49:23;;;;;;;1999.90;999.90;;;;;;;19.74;61.57;99855.66;15601298;28;20053;-62
2021/10/20 17:56:56;;;;;;;1999.90;999.90;;;;;;;19.63;61.58;99837.16;15643636;28;20157;-62
2021/10/20 18:04:29;;;;;;;1999.90;999.90;;;;;;;19.66;61.72;99833.47;15624502;28;20355;-62
2021/10/20 18:12:02;;;;;;;1999.90;999.90;;;;;;;19.46;62.46;99831.16;15638847;28;20578;-61
2021/10/20 18:19:36;;;;;;;1999.90;999.90;;;;;;;19.65;62.09;99837.53;15655643;28;20060;-61
2021/10/20 18:27:08;;;;;;;1999.90;999.90;;;;;;;19.75;61.87;99805.50;15655356;28;20036;-58
2021/10/20 18:34:42;;;;;;;1999.90;999.90;;;;;;;19.60;62.78;99808.47;15653960;28;20454;-58
2021/10/20 18:42:15;;;;;;;1999.90;999.90;;;;;;;19.59;62.75;99787.06;15672303;28;20060;-61
2021/10/20 18:49:49;;;;;;;;;;;;;;;19.63;62.80;99801.16;15666336;28;20067;-61
2021/10/20 18:57:23;;;;;;;1999.90;999.90;;;;;;;19.51;63.08;99768.50;15648592;28;20366;-63
2021/10/20 19:04:57;;;;;;;1999.90;999.90;;;;;;;19.45;63.19;99752.38;15651605;28;20559;-62
2021/10/20 19:12:30;;;;;;;1999.90;999.90;;;;;;;19.43;63.34;99724.50;15666545;28;20185;-62
2021/10/20 19:20:05;;;;;;;1999.90;999.90;;;;;;;19.48;63.65;99721.22;15669930;28;20547;-60
2021/10/20 19:27:38;;;;;;;1999.90;999.90;;;;;;;19.32;64.13;99718.13;15677646;28;20090;-61
2021/10/20 19:35:13;;;;;;;1999.90;999.90;;;;;;;19.40;64.17;99701.91;15667186;28;20025;-62
2021/10/20 19:42:46;;;;;;;1999.90;999.90;;;;;;;19.37;64.17;99699.91;15655061;28;20084;-62
2021/10/20 19:50:20;;;;;;;1999.90;999.90;;;;;;;19.39;64.31;99686.97;15658249;28;20053;-64
2021/10/20 19:57:53;;;;;;;1999.90;999.90;;;;;;;19.21;64.68;99695.59;15623410;28;20522;-62
2021/10/20 20:05:26;;;;;;;1999.90;999.90;;;;;;;19.31;64.40;99697.53;15648210;28;20045;-63
2021/10/20 20:12:59;;;;;;;1999.90;999.90;;;;;;;19.34;64.39;99670.44;15599067;28;20058;-62
2021/10/20 20:20:33;;;;;;;1999.90;999.90;;;;;;;19.27;64.57;99668.47;15654880;28;20052;-61
2021/10/20 20:28:05;;;;;;;1999.90;999.90;;;;;;;19.26;64.47;99661.22;15650055;28;20121;-62
2021/10/20 20:35:39;;;;;;;1999.90;999.90;;;;;;;19.23;64.75;99656.41;15641843;28;20052;-62
2021/10/20 20:43:12;;;;;;;1999.90;999.90;;;;;;;19.27;64.44;99645.84;15633943;28;20394;-62
2021/10/20 20:50:46;;;;;;;1999.90;999.90;;;;;;;19.18;64.71;99641.91;15629791;28;20402;-60
2021/10/20 20:58:19;;;;;;;1999.90;999.90;;;;;;;19.20;64.75;99648.75;15615351;28;20107;-62
2021/10/20 21:05:52;;;;;;;1999.90;999.90;;;;;;;19.27;64.61;99665.63;15631885;28;20144;-62
2021/10/20 21:13:27;;;;;;;1999.90;999.90;;;;;;;19.19;65.10;99623.72;15652974;28;20166;-62
2021/10/20 21:21:03;;;;;;;1999.90;999.90;;;;;;;19.28;64.70;99601.44;15635298;28;20081;-62
2021/10/20 21:28:36;;;;;;;1999.90;999.90;;;;;;;19.21;64.82;99629.75;15652876;28;20049;-63
2021/10/20 21:36:10;;;;;;;1999.90;999.90;;;;;;;19.20;64.98;99619.69;15654892;28;20038;-62
2021/10/20 21:43:49;;;;;;;1999.90;999.90;;;;;;;19.42;64.29;99623.09;15624871;28;20128;-61
2021/10/20 21:51:23;;;;;;;1999.90;999.90;;;;;;;19.50;63.97;99596.34;15591626;23;20418;-60
2021/10/20 21:58:55;;;;;;;1999.90;999.90;;;;;;;19.38;64.41;99583.50;15581549;28;20084;-60
2021/10/20 22:06:30;;;;;;;1999.90;999.90;;;;;;;19.31;64.26;99575.13;15586970;28;20133;-61
2021/10/20 22:14:02;;;;;;;1999.90;999.90;;;;;;;19.30;64.58;99565.03;15576477;28;20085;-60
2021/10/20 22:21:37;;;;;;;1999.90;999.90;;;;;;;19.40;64.39;99554.84;15594529;28;20100;-58
2021/10/20 22:29:09;;;;;;;1999.90;999.90;;;;;;;19.46;64.11;99528.47;15587058;28;20049;-60
2021/10/20 22:36:43;;;;;;;1999.90;999.90;;;;;;;19.46;64.32;99519.19;15618394;28;20065;-61
2021/10/20 22:44:16;;;;;;;1999.90;999.90;;;;;;;19.39;64.36;99494.63;15572155;28;20068;-60
2021/10/20 22:51:50;;;;;;;1999.90;999.90;;;;;;;19.35;64.63;99482.56;15563936;28;20053;-58
2021/10/20 22:59:23;;;;;;;1999.90;999.90;;;;;;;19.40;64.46;99472.81;15568078;28;20549;-59
2021/10/20 23:06:57;;;;;;;1999.90;999.90;;;;;;;19.37;64.23;99480.09;15579223;28;20048;-60
2021/10/20 23:14:29;;;;;;;1999.90;999.90;;;;;;;19.43;64.02;99466.31;15557930;28;20072;-58
2021/10/20 23:22:03;;;;;;;1999.90;999.90;;;;;;;19.41;64.20;99466.72;15551770;28;20102;-60
2021/10/20 23:29:36;;;;;;;1999.90;999.90;;;;;;;19.41;64.28;99451.78;15604361;28;20638;-58
2021/10/20 23:37:10;;;;;;;1999.90;999.90;;;;;;;19.32;64.29;99436.13;15596031;28;20081;-61
2021/10/20 23:44:42;;;;;;;1999.90;999.90;;;;;;;19.36;64.36;99410.63;15585540;28;20646;-58
2021/10/20 23:52:16;;;;;;;1999.90;999.90;;;;;;;19.36;64.40;99392.84;15612817;28;20095;-61
2021/10/20 23:59:48;;;;;;;1999.90;999.90;;;;;;;19.08;65.08;99374.25;15586265;28;20576;-60
